createdAt,value
2018-04-15T00:02:17.112Z,93.78
2018-04-15T00:04:43.008Z,93.84
2018-04-15T00:07:09.009Z,93.93
2018-04-15T00:09:34.930Z,93.97
2018-04-15T00:12:01.012Z,93.97
2018-04-15T00:14:26.928Z,93.77
2018-04-15T00:16:52.827Z,93.58
2018-04-15T00:19:18.813Z,93.30
2018-04-15T00:21:44.804Z,93.32
2018-04-15T00:24:10.688Z,93.40
2018-04-15T00:26:36.560Z,93.38
2018-04-15T00:29:02.642Z,93.41
2018-04-15T00:31:28.610Z,93.52
2018-04-15T00:33:54.568Z,93.54
2018-04-15T00:36:20.522Z,93.43
2018-04-15T00:38:46.376Z,93.10
2018-04-15T00:41:12.272Z,93.00
2018-04-15T00:43:38.260Z,92.87
2018-04-15T00:46:04.221Z,93.17
2018-04-15T00:48:30.101Z,93.34
2018-04-15T00:50:56.044Z,93.15
2018-04-15T00:53:21.977Z,93.10
2018-04-15T00:55:47.997Z,93.33
2018-04-15T00:58:13.965Z,93.27
2018-04-15T01:00:39.831Z,93.20
2018-04-15T01:03:05.727Z,93.20
2018-04-15T01:05:31.638Z,93.42
2018-04-15T01:07:57.615Z,93.31
2018-04-15T01:10:23.553Z,93.11
2018-04-15T01:12:49.923Z,93.13
2018-04-15T01:15:15.848Z,93.26
2018-04-15T01:17:41.760Z,93.45
2018-04-15T01:20:07.780Z,93.76
2018-04-15T01:22:33.735Z,93.91
2018-04-15T01:24:59.591Z,93.96
2018-04-15T01:27:25.662Z,94.10
2018-04-15T01:29:51.625Z,94.14
2018-04-15T01:32:17.611Z,94.00
2018-04-15T01:34:43.579Z,93.82
2018-04-15T01:37:09.442Z,93.75
2018-04-15T01:39:35.334Z,93.78
2018-04-15T01:42:01.281Z,93.83
2018-04-15T01:44:27.232Z,94.01
2018-04-15T01:46:53.151Z,93.76
2018-04-15T01:49:19.094Z,93.74
2018-04-15T01:51:44.989Z,93.98
2018-04-15T01:54:10.866Z,94.06
2018-04-15T01:56:36.865Z,94.16
2018-04-15T01:59:02.830Z,94.32
2018-04-15T02:01:28.701Z,94.37
2018-04-15T02:03:54.648Z,94.41
2018-04-15T02:06:20.516Z,94.43
2018-04-15T02:08:46.467Z,94.50
2018-04-15T02:11:12.829Z,94.54
2018-04-15T02:13:38.704Z,94.56
2018-04-15T02:16:05.268Z,94.57
2018-04-15T02:18:31.211Z,94.60
2018-04-15T02:20:57.191Z,94.50
2018-04-15T02:23:23.106Z,94.54
2018-04-15T02:25:49.016Z,94.47
2018-04-15T02:28:14.885Z,94.32
2018-04-15T02:30:40.823Z,94.35
2018-04-15T02:33:06.857Z,94.40
2018-04-15T02:35:32.788Z,94.72
2018-04-15T02:37:58.659Z,95.22
2018-04-15T02:40:24.574Z,95.14
2018-04-15T02:42:50.481Z,95.20
2018-04-15T02:45:16.456Z,95.09
2018-04-15T02:47:42.429Z,95.06
2018-04-15T02:50:08.338Z,95.07
2018-04-15T02:52:34.292Z,94.83
2018-04-15T02:55:00.286Z,94.87
2018-04-15T02:57:26.248Z,94.87
2018-04-15T02:59:52.216Z,94.93
2018-04-15T03:02:18.132Z,94.94
2018-04-15T03:04:44.069Z,94.93
2018-04-15T03:07:09.964Z,94.79
2018-04-15T03:09:36.302Z,94.61
2018-04-15T03:12:02.245Z,94.63
2018-04-15T03:14:28.139Z,94.53
2018-04-15T03:16:54.083Z,94.65
2018-04-15T03:19:19.964Z,94.63
2018-04-15T03:21:45.936Z,94.60
2018-04-15T03:24:11.902Z,94.56
2018-04-15T03:26:37.780Z,94.53
2018-04-15T03:29:03.699Z,94.56
2018-04-15T03:31:29.628Z,94.58
2018-04-15T03:33:55.964Z,94.54
2018-04-15T03:36:21.891Z,94.57
2018-04-15T03:38:47.804Z,94.52
2018-04-15T03:41:13.710Z,94.52
2018-04-15T03:43:39.587Z,94.40
2018-04-15T03:46:05.600Z,94.33
2018-04-15T03:48:31.531Z,94.28
2018-04-15T03:50:58.451Z,94.16
2018-04-15T03:53:24.363Z,94.04
2018-04-15T03:55:50.232Z,93.99
2018-04-15T03:58:16.179Z,93.64
2018-04-15T04:00:42.233Z,93.40
2018-04-15T04:03:08.116Z,93.21
2018-04-15T04:05:33.984Z,93.17
2018-04-15T04:08:00.510Z,93.05
2018-04-15T04:10:26.483Z,93.24
2018-04-15T04:12:52.443Z,93.16
2018-04-15T04:15:19.606Z,93.02
2018-04-15T04:17:57.747Z,93.18
2018-04-15T04:20:36.762Z,93.38
2018-04-15T04:23:15.752Z,93.38
2018-04-15T04:25:53.855Z,93.53
2018-04-15T04:28:19.719Z,93.49
2018-04-15T04:30:45.673Z,93.84
2018-04-15T04:33:11.565Z,94.01
2018-04-15T04:35:37.499Z,94.14
2018-04-15T04:38:03.421Z,94.19
2018-04-15T04:40:29.343Z,94.21
2018-04-15T04:42:55.328Z,94.07
2018-04-15T04:45:21.202Z,93.89
2018-04-15T04:47:47.466Z,93.97
2018-04-15T04:50:13.319Z,94.07
2018-04-15T04:52:39.195Z,94.09
2018-04-15T04:55:06.224Z,93.81
2018-04-15T04:57:32.101Z,93.88
2018-04-15T04:59:58.073Z,93.93
2018-04-15T05:02:23.990Z,93.93
2018-04-15T05:04:49.885Z,93.79
2018-04-15T05:07:15.859Z,93.46
2018-04-15T05:09:41.804Z,93.68
2018-04-15T05:12:07.723Z,93.87
2018-04-15T05:14:33.639Z,93.66
2018-04-15T05:16:59.570Z,93.67
2018-04-15T05:19:25.579Z,93.72
2018-04-15T05:21:51.508Z,93.74
2018-04-15T05:24:17.504Z,93.95
2018-04-15T05:26:43.420Z,93.85
2018-04-15T05:29:09.278Z,94.02
2018-04-15T05:31:35.359Z,94.01
2018-04-15T05:34:01.256Z,93.96
2018-04-15T05:36:27.243Z,93.99
2018-04-15T05:38:53.192Z,93.74
2018-04-15T05:41:19.109Z,93.85
2018-04-15T05:43:45.084Z,93.77
2018-04-15T05:46:11.352Z,93.91
2018-04-15T05:48:37.325Z,93.46
2018-04-15T05:51:03.216Z,93.50
2018-04-15T05:53:29.192Z,93.79
2018-04-15T05:55:55.143Z,93.48
2018-04-15T05:58:22.980Z,93.47
2018-04-15T06:00:48.968Z,93.67
2018-04-15T06:03:14.838Z,93.87
2018-04-15T06:05:40.735Z,93.75
2018-04-15T06:08:06.832Z,93.83
2018-04-15T06:10:32.704Z,92.98
2018-04-15T06:12:58.731Z,92.51
2018-04-15T06:15:24.952Z,92.37
2018-04-15T06:17:50.917Z,91.77
2018-04-15T06:20:16.871Z,91.87
2018-04-15T06:22:42.781Z,92.28
2018-04-15T06:25:08.701Z,92.50
2018-04-15T06:27:34.571Z,92.21
2018-04-15T06:30:00.785Z,92.30
2018-04-15T06:32:26.815Z,92.15
2018-04-15T06:34:52.708Z,92.09
2018-04-15T06:37:18.690Z,91.68
2018-04-15T06:39:44.669Z,91.56
2018-04-15T06:42:10.588Z,91.05
2018-04-15T06:44:36.584Z,91.54
2018-04-15T06:47:02.472Z,90.38
2018-04-15T06:49:28.564Z,90.14
2018-04-15T06:51:54.512Z,90.21
2018-04-15T06:54:20.379Z,89.70
2018-04-15T06:56:46.332Z,89.48
2018-04-15T06:59:12.249Z,87.87
2018-04-15T07:01:38.243Z,86.78
2018-04-15T07:04:04.124Z,87.34
2018-04-15T07:06:30.128Z,85.65
2018-04-15T07:08:56.376Z,85.32
2018-04-15T07:11:22.288Z,85.75
2018-04-15T07:13:48.395Z,85.74
2018-04-15T07:16:14.279Z,84.79
2018-04-15T07:18:40.175Z,84.37
2018-04-15T07:21:06.193Z,84.62
2018-04-15T07:23:32.063Z,83.85
2018-04-15T07:25:58.003Z,83.09
2018-04-15T07:28:23.911Z,83.70
2018-04-15T07:30:49.775Z,83.37
2018-04-15T07:33:15.730Z,83.82
2018-04-15T07:35:41.777Z,82.64
2018-04-15T07:38:07.845Z,79.63
2018-04-15T07:40:33.711Z,78.37
2018-04-15T07:42:59.634Z,81.33
2018-04-15T07:45:25.595Z,78.72
2018-04-15T07:47:51.467Z,79.45
2018-04-15T07:50:17.523Z,77.74
2018-04-15T07:52:43.428Z,77.94
2018-04-15T07:55:09.355Z,77.30
2018-04-15T07:57:36.202Z,78.23
2018-04-15T08:00:02.170Z,76.70
2018-04-15T08:02:28.152Z,76.26
2018-04-15T08:04:54.104Z,75.36
2018-04-15T08:07:21.136Z,76.13
2018-04-15T08:09:47.095Z,74.17
2018-04-15T08:12:13.035Z,75.06
2018-04-15T08:14:38.964Z,75.39
2018-04-15T08:17:04.840Z,74.92
2018-04-15T08:19:30.788Z,74.30
2018-04-15T08:21:56.785Z,73.55
2018-04-15T08:24:22.712Z,75.17
2018-04-15T08:26:48.668Z,74.56
2018-04-15T08:29:14.579Z,74.00
2018-04-15T08:31:40.481Z,73.06
2018-04-15T08:34:06.502Z,73.54
2018-04-15T08:36:32.917Z,75.11
2018-04-15T08:38:58.856Z,72.52
2018-04-15T08:41:24.814Z,73.12
2018-04-15T08:43:50.691Z,71.49
2018-04-15T08:46:16.704Z,69.76
2018-04-15T08:48:42.627Z,70.40
2018-04-15T08:51:08.547Z,68.43
2018-04-15T08:53:34.423Z,64.67
2018-04-15T08:56:00.315Z,67.25
2018-04-15T08:58:26.271Z,65.45
2018-04-15T09:00:52.160Z,63.76
2018-04-15T09:03:18.175Z,64.63
2018-04-15T09:05:44.059Z,63.53
2018-04-15T09:08:09.919Z,63.12
2018-04-15T09:10:35.930Z,64.01
2018-04-15T09:13:01.835Z,62.84
2018-04-15T09:15:27.776Z,64.64
2018-04-15T09:17:53.718Z,62.39
2018-04-15T09:20:19.616Z,62.00
2018-04-15T09:22:45.600Z,63.08
2018-04-15T09:25:11.508Z,58.95
2018-04-15T09:27:37.436Z,57.69
2018-04-15T09:30:03.354Z,60.14
2018-04-15T09:32:29.247Z,58.39
2018-04-15T09:34:55.211Z,58.65
2018-04-15T09:37:21.089Z,56.53
2018-04-15T09:39:48.081Z,56.70
2018-04-15T09:42:14.970Z,54.38
2018-04-15T09:44:40.887Z,55.50
2018-04-15T09:47:06.934Z,59.49
2018-04-15T09:49:32.812Z,52.64
2018-04-15T09:51:58.749Z,52.44
2018-04-15T09:54:24.665Z,55.78
2018-04-15T09:56:50.541Z,55.05
2018-04-15T09:59:16.592Z,53.82
2018-04-15T10:01:42.461Z,52.12
2018-04-15T10:04:08.410Z,52.43
2018-04-15T10:06:34.271Z,51.19
2018-04-15T10:09:00.174Z,50.70
2018-04-15T10:11:26.141Z,51.70
2018-04-15T10:13:52.019Z,51.57
2018-04-15T10:16:17.990Z,52.39
2018-04-15T10:18:43.893Z,51.93
2018-04-15T10:21:09.759Z,51.28
2018-04-15T10:23:35.791Z,52.20
2018-04-15T10:26:01.717Z,53.37
2018-04-15T10:28:27.635Z,51.21
2018-04-15T10:30:53.681Z,49.54
2018-04-15T10:33:19.561Z,46.41
2018-04-15T10:35:45.552Z,48.41
2018-04-15T10:38:11.475Z,50.70
2018-04-15T10:40:37.405Z,49.16
2018-04-15T10:43:03.330Z,48.97
2018-04-15T10:45:29.239Z,50.67
2018-04-15T10:47:55.202Z,47.15
2018-04-15T10:50:21.072Z,42.25
2018-04-15T10:52:47.048Z,41.64
2018-04-15T10:55:12.924Z,43.83
2018-04-15T10:57:38.804Z,43.45
2018-04-15T11:00:04.801Z,44.57
2018-04-15T11:02:30.667Z,43.20
2018-04-15T11:04:56.587Z,43.08
2018-04-15T11:07:23.268Z,43.70
2018-04-15T11:09:49.140Z,43.15
2018-04-15T11:12:15.125Z,42.10
2018-04-15T11:14:41.044Z,41.19
2018-04-15T11:17:08.105Z,42.49
2018-04-15T11:19:33.996Z,39.92
2018-04-15T11:21:59.962Z,42.09
2018-04-15T11:24:26.406Z,39.18
2018-04-15T11:26:52.262Z,41.69
2018-04-15T11:29:18.241Z,40.98
2018-04-15T11:31:44.588Z,38.79
2018-04-15T11:34:10.520Z,37.08
2018-04-15T11:36:36.568Z,38.71
2018-04-15T11:39:02.461Z,38.58
2018-04-15T11:41:28.387Z,38.56
2018-04-15T11:43:54.330Z,36.27
2018-04-15T11:46:20.291Z,36.62
2018-04-15T11:48:46.260Z,36.68
2018-04-15T11:51:12.184Z,39.15
2018-04-15T11:53:38.131Z,39.42
2018-04-15T11:56:04.015Z,38.07
2018-04-15T11:58:30.017Z,38.08
2018-04-15T12:00:56.060Z,38.31
2018-04-15T12:03:21.953Z,38.63
2018-04-15T12:05:47.943Z,37.08
2018-04-15T12:08:13.812Z,38.17
2018-04-15T12:10:39.819Z,38.83
2018-04-15T12:13:06.019Z,41.53
2018-04-15T12:15:31.908Z,38.51
2018-04-15T12:17:57.855Z,42.46
2018-04-15T12:20:23.831Z,39.18
2018-04-15T12:22:49.724Z,35.73
2018-04-15T12:25:15.733Z,39.54
2018-04-15T12:27:41.662Z,40.29
2018-04-15T12:30:08.607Z,42.31
2018-04-15T12:32:34.495Z,39.83
2018-04-15T12:35:00.529Z,42.52
2018-04-15T12:37:26.491Z,40.70
2018-04-15T12:39:52.380Z,38.61
2018-04-15T12:42:18.381Z,40.50
2018-04-15T12:44:44.236Z,39.59
2018-04-15T12:47:10.111Z,41.63
2018-04-15T12:49:36.200Z,44.80
2018-04-15T12:52:02.142Z,41.89
2018-04-15T12:54:28.075Z,44.08
2018-04-15T12:56:54.008Z,40.73
2018-04-15T12:59:19.897Z,39.41
2018-04-15T13:01:45.868Z,41.74
2018-04-15T13:04:11.800Z,38.00
2018-04-15T13:06:38.960Z,39.34
2018-04-15T13:09:04.851Z,43.17
2018-04-15T13:11:30.824Z,38.63
2018-04-15T13:13:56.791Z,40.68
2018-04-15T13:16:22.690Z,43.76
2018-04-15T13:18:48.820Z,43.05
2018-04-15T13:21:14.698Z,40.37
2018-04-15T13:23:40.595Z,39.39
2018-04-15T13:26:06.646Z,40.81
2018-04-15T13:28:32.609Z,40.01
2018-04-15T13:30:58.561Z,39.95
2018-04-15T13:33:24.491Z,40.04
2018-04-15T13:35:51.387Z,41.05
2018-04-15T13:38:17.369Z,39.74
2018-04-15T13:40:43.302Z,39.50
2018-04-15T13:43:09.672Z,39.60
2018-04-15T13:45:35.529Z,37.68
2018-04-15T13:48:01.464Z,40.17
2018-04-15T13:50:27.462Z,39.99
2018-04-15T13:52:53.337Z,39.35
2018-04-15T13:55:19.321Z,37.59
2018-04-15T13:57:45.196Z,39.40
2018-04-15T14:00:11.096Z,39.44
2018-04-15T14:02:37.120Z,38.85
2018-04-15T14:05:02.976Z,38.65
2018-04-15T14:07:28.906Z,41.36
2018-04-15T14:09:54.811Z,38.47
2018-04-15T14:12:20.681Z,40.24
2018-04-15T14:14:46.688Z,38.61
2018-04-15T14:17:12.614Z,38.96
2018-04-15T14:19:38.571Z,41.69
2018-04-15T14:22:04.452Z,38.63
2018-04-15T14:24:30.376Z,40.19
2018-04-15T14:26:56.344Z,39.70
2018-04-15T14:29:22.229Z,40.04
2018-04-15T14:31:48.205Z,40.37
2018-04-15T14:34:14.103Z,40.21
2018-04-15T14:36:39.963Z,39.95
2018-04-15T14:39:06.833Z,41.43
2018-04-15T14:41:32.713Z,40.65
2018-04-15T14:43:58.627Z,41.03
2018-04-15T14:46:24.579Z,39.59
2018-04-15T14:48:50.431Z,40.50
2018-04-15T14:51:16.371Z,41.05
2018-04-15T14:53:42.322Z,39.56
2018-04-15T14:56:08.244Z,40.92
2018-04-15T14:58:34.137Z,40.86
2018-04-15T15:01:00.051Z,41.39
2018-04-15T15:03:26.036Z,40.11
2018-04-15T15:05:51.983Z,40.80
2018-04-15T15:08:17.945Z,40.80
2018-04-15T15:10:43.907Z,41.02
2018-04-15T15:13:09.832Z,41.08
2018-04-15T15:15:35.832Z,40.71
2018-04-15T15:18:01.688Z,39.81
2018-04-15T15:20:27.716Z,40.76
2018-04-15T15:22:53.807Z,41.54
2018-04-15T15:25:19.720Z,40.43
2018-04-15T15:27:47.887Z,41.85
2018-04-15T15:30:14.042Z,42.90
2018-04-15T15:32:40.049Z,41.15
2018-04-15T15:35:05.911Z,41.17
2018-04-15T15:37:31.836Z,41.77
2018-04-15T15:39:58.026Z,40.19
2018-04-15T15:42:23.954Z,40.63
2018-04-15T15:44:51.029Z,40.74
2018-04-15T15:47:16.916Z,39.27
2018-04-15T15:49:42.814Z,40.01
2018-04-15T15:52:08.841Z,42.03
2018-04-15T15:54:34.729Z,40.03
2018-04-15T15:57:00.666Z,40.71
2018-04-15T15:59:26.600Z,40.02
2018-04-15T16:01:52.483Z,39.42
2018-04-15T16:04:18.441Z,41.52
2018-04-15T16:06:44.369Z,42.46
2018-04-15T16:09:10.324Z,41.47
2018-04-15T16:11:36.179Z,41.05
2018-04-15T16:14:02.138Z,40.65
2018-04-15T16:16:28.100Z,42.56
2018-04-15T16:18:53.980Z,39.74
2018-04-15T16:21:19.960Z,41.99
2018-04-15T16:23:45.894Z,46.38
2018-04-15T16:26:11.761Z,42.69
2018-04-15T16:28:37.764Z,41.56
2018-04-15T16:31:03.648Z,41.17
2018-04-15T16:33:29.567Z,43.04
2018-04-15T16:35:55.497Z,44.86
2018-04-15T16:38:22.594Z,41.04
2018-04-15T16:40:48.685Z,41.07
2018-04-15T16:43:14.631Z,43.15
2018-04-15T16:45:40.599Z,44.43
2018-04-15T16:48:06.489Z,42.65
2018-04-15T16:50:32.797Z,43.71
2018-04-15T16:52:58.748Z,43.19
2018-04-15T16:55:24.612Z,40.71
2018-04-15T16:57:50.596Z,43.58
2018-04-15T17:00:16.487Z,44.09
2018-04-15T17:02:42.364Z,45.28
2018-04-15T17:05:08.715Z,43.25
2018-04-15T17:07:34.584Z,45.30
2018-04-15T17:10:00.509Z,47.25
2018-04-15T17:12:26.438Z,46.52
2018-04-15T17:14:52.337Z,49.00
2018-04-15T17:17:18.293Z,47.94
2018-04-15T17:19:44.214Z,48.50
2018-04-15T17:22:10.222Z,51.10
2018-04-15T17:24:36.082Z,52.29
2018-04-15T17:27:01.988Z,54.93
2018-04-15T17:29:27.974Z,55.38
2018-04-15T17:31:54.015Z,54.28
2018-04-15T17:34:21.299Z,55.24
2018-04-15T17:36:47.256Z,57.67
2018-04-15T17:39:13.136Z,57.11
2018-04-15T17:41:39.308Z,58.54
2018-04-15T17:44:05.176Z,57.30
2018-04-15T17:46:31.132Z,59.42
2018-04-15T17:48:57.057Z,60.08
2018-04-15T17:51:22.925Z,61.42
2018-04-15T17:53:48.868Z,63.47
2018-04-15T17:56:14.785Z,63.82
2018-04-15T17:58:40.711Z,62.57
2018-04-15T18:01:06.609Z,65.46
2018-04-15T18:03:32.563Z,64.66
2018-04-15T18:05:58.531Z,65.16
2018-04-15T18:08:24.402Z,66.28
2018-04-15T18:10:50.538Z,66.49
2018-04-15T18:13:16.454Z,67.55
2018-04-15T18:15:42.316Z,67.70
2018-04-15T18:18:08.325Z,68.83
2018-04-15T18:20:34.243Z,69.63
2018-04-15T18:23:00.192Z,70.18
2018-04-15T18:25:26.174Z,73.16
2018-04-15T18:27:52.039Z,72.92
2018-04-15T18:30:18.019Z,73.09
2018-04-15T18:32:43.924Z,73.06
2018-04-15T18:35:09.893Z,72.96
2018-04-15T18:37:35.762Z,72.65
2018-04-15T18:40:01.677Z,72.86
2018-04-15T18:42:27.645Z,73.72
2018-04-15T18:44:53.606Z,72.58
2018-04-15T18:47:19.588Z,72.91
2018-04-15T18:49:45.473Z,72.55
2018-04-15T18:52:11.336Z,73.99
2018-04-15T18:54:37.341Z,74.22
2018-04-15T18:57:03.242Z,74.72
2018-04-15T18:59:29.180Z,74.91
2018-04-15T19:01:55.104Z,74.97
2018-04-15T19:04:20.972Z,75.16
2018-04-15T19:06:46.951Z,74.91
2018-04-15T19:09:12.863Z,73.99
2018-04-15T19:11:38.804Z,74.99
2018-04-15T19:14:04.695Z,75.03
2018-04-15T19:16:30.672Z,75.25
2018-04-15T19:18:57.171Z,75.25
2018-04-15T19:21:23.249Z,74.39
2018-04-15T19:23:49.204Z,75.07
2018-04-15T19:26:15.094Z,75.46
2018-04-15T19:28:40.947Z,76.06
2018-04-15T19:31:07.047Z,74.99
2018-04-15T19:33:33.236Z,75.01
2018-04-15T19:35:59.145Z,75.90
2018-04-15T19:38:25.064Z,75.67
2018-04-15T19:40:50.934Z,75.41
2018-04-15T19:43:16.933Z,75.76
2018-04-15T19:45:42.865Z,75.44
2018-04-15T19:48:08.824Z,75.87
2018-04-15T19:50:34.721Z,76.60
2018-04-15T19:53:00.871Z,76.79
2018-04-15T19:55:27.670Z,77.40
2018-04-15T19:57:53.581Z,76.36
2018-04-15T20:00:19.572Z,75.30
2018-04-15T20:02:45.476Z,76.17
2018-04-15T20:05:11.364Z,76.93
2018-04-15T20:07:37.366Z,76.56
2018-04-15T20:10:03.297Z,77.21
2018-04-15T20:12:29.263Z,77.58
2018-04-15T20:14:55.409Z,78.01
2018-04-15T20:17:21.496Z,78.20
2018-04-15T20:19:47.553Z,77.59
2018-04-15T20:22:13.484Z,76.92
2018-04-15T20:24:43.864Z,77.58
2018-04-15T20:27:09.744Z,77.66
2018-04-15T20:29:35.638Z,77.46
2018-04-15T20:32:01.588Z,77.30
2018-04-15T20:34:27.494Z,77.73
2018-04-15T20:36:53.478Z,77.55
2018-04-15T20:39:19.388Z,76.99
2018-04-15T20:41:45.287Z,78.26
2018-04-15T20:44:11.352Z,78.50
2018-04-15T20:46:37.235Z,77.98
2018-04-15T20:49:03.189Z,78.33
2018-04-15T20:51:29.188Z,78.81
2018-04-15T20:53:55.059Z,79.36
2018-04-15T20:56:21.867Z,79.06
2018-04-15T20:58:47.790Z,78.79
2018-04-15T21:01:13.737Z,75.81
2018-04-15T21:03:39.624Z,77.77
2018-04-15T21:06:06.971Z,77.51
2018-04-15T21:08:32.923Z,78.25
2018-04-15T21:10:58.825Z,77.89
2018-04-15T21:13:24.783Z,79.33
2018-04-15T21:15:50.655Z,79.49
2018-04-15T21:18:16.551Z,78.87
2018-04-15T21:20:42.567Z,79.08
2018-04-15T21:23:08.419Z,79.29
2018-04-15T21:25:34.354Z,80.49
2018-04-15T21:28:00.293Z,80.54
2018-04-15T21:30:26.175Z,80.40
2018-04-15T21:32:52.145Z,79.94
2018-04-15T21:35:18.056Z,79.90
2018-04-15T21:37:43.995Z,80.64
2018-04-15T21:40:10.912Z,80.59
2018-04-15T21:42:36.837Z,80.55
2018-04-15T21:45:02.818Z,79.69
2018-04-15T21:47:28.707Z,80.31
2018-04-15T21:49:54.661Z,78.71
2018-04-15T21:52:20.556Z,79.64
2018-04-15T21:54:46.415Z,78.98
2018-04-15T21:57:12.439Z,79.08
2018-04-15T21:59:38.368Z,78.67
2018-04-15T22:02:04.320Z,79.12
2018-04-15T22:04:30.261Z,79.39
2018-04-15T22:06:56.124Z,79.05
2018-04-15T22:09:22.081Z,78.51
2018-04-15T22:12:00.371Z,79.91
2018-04-15T22:14:26.320Z,79.61
2018-04-15T22:16:52.210Z,79.91
2018-04-15T22:19:18.128Z,79.86
2018-04-15T22:21:44.100Z,79.79
2018-04-15T22:24:09.994Z,79.88
2018-04-15T22:26:35.994Z,80.04
2018-04-15T22:29:01.873Z,80.71
2018-04-15T22:31:27.815Z,81.21
2018-04-15T22:33:53.832Z,81.06
2018-04-15T22:36:19.726Z,80.44
2018-04-15T22:38:45.673Z,80.61
2018-04-15T22:41:11.602Z,80.96
2018-04-15T22:43:37.476Z,81.42
2018-04-15T22:46:03.453Z,81.49
2018-04-15T22:48:35.484Z,81.45
2018-04-15T22:51:01.410Z,81.40
2018-04-15T22:53:27.313Z,80.24
2018-04-15T22:55:54.327Z,79.30
2018-04-15T22:58:21.097Z,80.46
2018-04-15T23:00:46.963Z,80.21
2018-04-15T23:03:12.956Z,80.91
2018-04-15T23:05:38.836Z,78.59
2018-04-15T23:08:04.705Z,77.87
2018-04-15T23:10:30.712Z,78.78
2018-04-15T23:12:56.606Z,79.42
2018-04-15T23:15:22.568Z,78.80
2018-04-15T23:17:48.484Z,77.59
2018-04-15T23:20:14.363Z,76.86
2018-04-15T23:22:40.321Z,77.12
2018-04-15T23:25:06.623Z,77.66
2018-04-15T23:27:32.552Z,78.75
2018-04-15T23:29:58.445Z,79.39
2018-04-15T23:32:24.363Z,79.01
2018-04-15T23:34:50.299Z,79.00
2018-04-15T23:37:16.196Z,78.33
2018-04-15T23:39:42.175Z,80.14
2018-04-15T23:42:08.043Z,80.64
2018-04-15T23:44:33.934Z,80.15
2018-04-15T23:47:00.097Z,80.44
2018-04-15T23:49:26.016Z,80.99
2018-04-15T23:51:51.935Z,80.10
2018-04-15T23:54:17.859Z,80.75
2018-04-15T23:56:49.921Z,80.94
2018-04-15T23:59:15.859Z,79.01
